sensor_id;sensor_type;location;lat;lon;timestamp;P1;durP1;ratioP1;P2;durP2;ratioP2
70838;SDS011;58464;52.298;4.852;2022-09-06T00:00:06;2.60;;;1.30;;
70838;SDS011;58464;52.298;4.852;2022-09-06T00:02:34;2.10;;;1.10;;
70838;SDS011;58464;52.298;4.852;2022-09-06T00:05:00;3.40;;;1.25;;
70838;SDS011;58464;52.298;4.852;2022-09-06T00:07:26;1.77;;;1.13;;
70838;SDS011;58464;52.298;4.852;2022-09-06T00:09:51;2.72;;;1.00;;
70838;SDS011;58464;52.298;4.852;2022-09-06T00:12:17;1.05;;;0.95;;
70838;SDS011;58464;52.298;4.852;2022-09-06T00:14:43;1.55;;;0.90;;
70838;SDS011;58464;52.298;4.852;2022-09-06T00:17:08;2.35;;;1.30;;
70838;SDS011;58464;52.298;4.852;2022-09-06T00:19:34;2.53;;;1.20;;
70838;SDS011;58464;52.298;4.852;2022-09-06T00:21:59;4.18;;;1.73;;
70838;SDS011;58464;52.298;4.852;2022-09-06T00:24:24;3.25;;;1.30;;
70838;SDS011;58464;52.298;4.852;2022-09-06T00:26:50;3.08;;;1.20;;
70838;SDS011;58464;52.298;4.852;2022-09-06T00:29:15;6.03;;;1.40;;
70838;SDS011;58464;52.298;4.852;2022-09-06T00:31:40;3.45;;;1.58;;
70838;SDS011;58464;52.298;4.852;2022-09-06T00:34:06;3.33;;;1.58;;
70838;SDS011;58464;52.298;4.852;2022-09-06T00:36:31;2.08;;;1.33;;
70838;SDS011;58464;52.298;4.852;2022-09-06T00:38:57;4.80;;;2.00;;
70838;SDS011;58464;52.298;4.852;2022-09-06T00:41:22;4.00;;;1.98;;
70838;SDS011;58464;52.298;4.852;2022-09-06T00:43:48;7.50;;;2.80;;
70838;SDS011;58464;52.298;4.852;2022-09-06T00:46:18;6.70;;;2.67;;
70838;SDS011;58464;52.298;4.852;2022-09-06T00:48:47;8.70;;;3.25;;
70838;SDS011;58464;52.298;4.852;2022-09-06T00:51:17;11.00;;;4.00;;
70838;SDS011;58464;52.298;4.852;2022-09-06T00:53:44;13.88;;;4.57;;
70838;SDS011;58464;52.298;4.852;2022-09-06T00:56:10;12.38;;;4.50;;
70838;SDS011;58464;52.298;4.852;2022-09-06T00:58:36;11.63;;;4.65;;
70838;SDS011;58464;52.298;4.852;2022-09-06T01:01:02;9.63;;;5.05;;
70838;SDS011;58464;52.298;4.852;2022-09-06T01:03:29;11.45;;;5.00;;
70838;SDS011;58464;52.298;4.852;2022-09-06T01:25:00;9.20;;;3.50;;
70838;SDS011;58464;52.298;4.852;2022-09-06T01:30:15;7.22;;;3.20;;
70838;SDS011;58464;52.298;4.852;2022-09-06T01:36:03;6.15;;;3.15;;
70838;SDS011;58464;52.298;4.852;2022-09-06T01:38:33;6.75;;;3.00;;
70838;SDS011;58464;52.298;4.852;2022-09-06T01:40:58;5.43;;;3.13;;
70838;SDS011;58464;52.298;4.852;2022-09-06T01:43:25;5.97;;;2.63;;
70838;SDS011;58464;52.298;4.852;2022-09-06T01:51:19;5.40;;;2.80;;
70838;SDS011;58464;52.298;4.852;2022-09-06T01:56:42;4.50;;;2.40;;
70838;SDS011;58464;52.298;4.852;2022-09-06T01:59:15;5.13;;;2.45;;
70838;SDS011;58464;52.298;4.852;2022-09-06T02:01:54;4.82;;;2.83;;
70838;SDS011;58464;52.298;4.852;2022-09-06T02:04:30;6.00;;;2.65;;
70838;SDS011;58464;52.298;4.852;2022-09-06T02:07:11;5.03;;;2.40;;
70838;SDS011;58464;52.298;4.852;2022-09-06T02:09:38;4.30;;;2.30;;
70838;SDS011;58464;52.298;4.852;2022-09-06T02:12:06;4.97;;;2.28;;
70838;SDS011;58464;52.298;4.852;2022-09-06T02:14:47;5.50;;;2.95;;
70838;SDS011;58464;52.298;4.852;2022-09-06T02:17:17;5.65;;;2.90;;
70838;SDS011;58464;52.298;4.852;2022-09-06T02:19:48;4.15;;;2.20;;
70838;SDS011;58464;52.298;4.852;2022-09-06T02:22:24;4.22;;;2.30;;
70838;SDS011;58464;52.298;4.852;2022-09-06T02:24:53;3.70;;;2.30;;
70838;SDS011;58464;52.298;4.852;2022-09-06T02:27:20;5.85;;;2.42;;
70838;SDS011;58464;52.298;4.852;2022-09-06T02:29:46;5.35;;;2.60;;
70838;SDS011;58464;52.298;4.852;2022-09-06T02:32:19;4.00;;;2.38;;
70838;SDS011;58464;52.298;4.852;2022-09-06T02:37:14;3.03;;;2.25;;
70838;SDS011;58464;52.298;4.852;2022-09-06T02:39:40;6.55;;;2.70;;
70838;SDS011;58464;52.298;4.852;2022-09-06T02:42:06;5.57;;;2.75;;
70838;SDS011;58464;52.298;4.852;2022-09-06T02:44:33;4.03;;;2.60;;
70838;SDS011;58464;52.298;4.852;2022-09-06T02:46:59;5.75;;;2.60;;
70838;SDS011;58464;52.298;4.852;2022-09-06T02:49:26;4.88;;;2.63;;
70838;SDS011;58464;52.298;4.852;2022-09-06T02:51:51;4.63;;;2.80;;
70838;SDS011;58464;52.298;4.852;2022-09-06T02:54:16;3.92;;;2.45;;
70838;SDS011;58464;52.298;4.852;2022-09-06T02:56:42;3.08;;;2.53;;
70838;SDS011;58464;52.298;4.852;2022-09-06T02:59:07;5.57;;;2.80;;
70838;SDS011;58464;52.298;4.852;2022-09-06T03:01:33;5.07;;;2.40;;
70838;SDS011;58464;52.298;4.852;2022-09-06T03:03:58;6.25;;;2.53;;
70838;SDS011;58464;52.298;4.852;2022-09-06T03:06:24;7.80;;;2.50;;
70838;SDS011;58464;52.298;4.852;2022-09-06T03:08:49;8.98;;;3.05;;
70838;SDS011;58464;52.298;4.852;2022-09-06T03:11:15;5.13;;;2.70;;
70838;SDS011;58464;52.298;4.852;2022-09-06T03:13:40;8.10;;;3.00;;
70838;SDS011;58464;52.298;4.852;2022-09-06T03:16:06;6.28;;;3.17;;
70838;SDS011;58464;52.298;4.852;2022-09-06T03:18:31;6.18;;;2.90;;
70838;SDS011;58464;52.298;4.852;2022-09-06T03:20:57;6.55;;;3.17;;
70838;SDS011;58464;52.298;4.852;2022-09-06T03:23:24;6.40;;;3.40;;
70838;SDS011;58464;52.298;4.852;2022-09-06T03:25:51;7.85;;;3.17;;
70838;SDS011;58464;52.298;4.852;2022-09-06T03:28:17;5.80;;;3.50;;
70838;SDS011;58464;52.298;4.852;2022-09-06T03:30:46;5.95;;;3.20;;
70838;SDS011;58464;52.298;4.852;2022-09-06T03:33:12;7.00;;;3.35;;
70838;SDS011;58464;52.298;4.852;2022-09-06T03:35:38;7.18;;;3.63;;
70838;SDS011;58464;52.298;4.852;2022-09-06T03:38:03;8.27;;;3.88;;
70838;SDS011;58464;52.298;4.852;2022-09-06T03:40:29;5.43;;;3.40;;
70838;SDS011;58464;52.298;4.852;2022-09-06T03:42:54;6.70;;;3.95;;
70838;SDS011;58464;52.298;4.852;2022-09-06T03:45:19;6.20;;;3.83;;
70838;SDS011;58464;52.298;4.852;2022-09-06T03:47:45;8.20;;;3.88;;
70838;SDS011;58464;52.298;4.852;2022-09-06T03:50:10;8.80;;;4.53;;
70838;SDS011;58464;52.298;4.852;2022-09-06T03:52:36;12.60;;;5.47;;
70838;SDS011;58464;52.298;4.852;2022-09-06T03:55:03;11.25;;;4.88;;
70838;SDS011;58464;52.298;4.852;2022-09-06T03:57:29;10.60;;;5.18;;
70838;SDS011;58464;52.298;4.852;2022-09-06T03:59:55;10.13;;;5.43;;
70838;SDS011;58464;52.298;4.852;2022-09-06T04:02:20;12.70;;;5.40;;
70838;SDS011;58464;52.298;4.852;2022-09-06T04:04:45;11.57;;;5.57;;
70838;SDS011;58464;52.298;4.852;2022-09-06T04:07:11;9.82;;;5.25;;
70838;SDS011;58464;52.298;4.852;2022-09-06T04:09:36;9.52;;;5.15;;
70838;SDS011;58464;52.298;4.852;2022-09-06T04:12:02;9.45;;;5.07;;
70838;SDS011;58464;52.298;4.852;2022-09-06T04:14:27;9.93;;;5.05;;
70838;SDS011;58464;52.298;4.852;2022-09-06T04:16:54;12.20;;;5.15;;
70838;SDS011;58464;52.298;4.852;2022-09-06T04:19:19;9.68;;;5.40;;
70838;SDS011;58464;52.298;4.852;2022-09-06T04:21:45;9.88;;;5.25;;
70838;SDS011;58464;52.298;4.852;2022-09-06T04:24:11;9.65;;;4.78;;
70838;SDS011;58464;52.298;4.852;2022-09-06T04:26:36;7.43;;;4.43;;
70838;SDS011;58464;52.298;4.852;2022-09-06T04:29:01;11.95;;;5.57;;
70838;SDS011;58464;52.298;4.852;2022-09-06T04:31:27;8.43;;;4.05;;
70838;SDS011;58464;52.298;4.852;2022-09-06T04:33:53;8.32;;;4.18;;
70838;SDS011;58464;52.298;4.852;2022-09-06T04:36:18;8.40;;;4.50;;
70838;SDS011;58464;52.298;4.852;2022-09-06T04:38:43;9.50;;;4.18;;
70838;SDS011;58464;52.298;4.852;2022-09-06T04:41:10;6.35;;;4.25;;
70838;SDS011;58464;52.298;4.852;2022-09-06T04:43:36;9.27;;;3.50;;
70838;SDS011;58464;52.298;4.852;2022-09-06T04:46:03;5.63;;;3.42;;
70838;SDS011;58464;52.298;4.852;2022-09-06T04:48:30;8.80;;;3.97;;
70838;SDS011;58464;52.298;4.852;2022-09-06T04:50:55;6.80;;;3.67;;
70838;SDS011;58464;52.298;4.852;2022-09-06T04:53:21;7.47;;;3.85;;
70838;SDS011;58464;52.298;4.852;2022-09-06T04:55:46;9.13;;;3.05;;
70838;SDS011;58464;52.298;4.852;2022-09-06T04:58:12;7.43;;;3.20;;
70838;SDS011;58464;52.298;4.852;2022-09-06T05:00:37;6.45;;;3.63;;
70838;SDS011;58464;52.298;4.852;2022-09-06T05:03:03;8.00;;;3.78;;
70838;SDS011;58464;52.298;4.852;2022-09-06T05:05:29;6.88;;;3.22;;
70838;SDS011;58464;52.298;4.852;2022-09-06T05:07:54;4.90;;;3.05;;
70838;SDS011;58464;52.298;4.852;2022-09-06T05:10:20;5.95;;;3.28;;
70838;SDS011;58464;52.298;4.852;2022-09-06T05:12:50;5.00;;;3.45;;
70838;SDS011;58464;52.298;4.852;2022-09-06T05:15:20;5.05;;;3.88;;
70838;SDS011;58464;52.298;4.852;2022-09-06T05:17:52;4.43;;;3.38;;
70838;SDS011;58464;52.298;4.852;2022-09-06T05:20:17;8.18;;;3.42;;
70838;SDS011;58464;52.298;4.852;2022-09-06T05:22:45;5.18;;;3.17;;
70838;SDS011;58464;52.298;4.852;2022-09-06T05:25:19;6.22;;;3.67;;
70838;SDS011;58464;52.298;4.852;2022-09-06T05:27:44;5.75;;;3.78;;
70838;SDS011;58464;52.298;4.852;2022-09-06T05:30:10;6.25;;;4.47;;
70838;SDS011;58464;52.298;4.852;2022-09-06T05:32:36;8.30;;;4.45;;
70838;SDS011;58464;52.298;4.852;2022-09-06T05:35:01;8.77;;;4.68;;
70838;SDS011;58464;52.298;4.852;2022-09-06T05:37:27;9.55;;;4.35;;
70838;SDS011;58464;52.298;4.852;2022-09-06T05:39:52;7.13;;;4.28;;
70838;SDS011;58464;52.298;4.852;2022-09-06T05:42:18;6.00;;;4.68;;
70838;SDS011;58464;52.298;4.852;2022-09-06T05:44:43;6.75;;;4.18;;
70838;SDS011;58464;52.298;4.852;2022-09-06T05:47:09;8.02;;;4.40;;
70838;SDS011;58464;52.298;4.852;2022-09-06T05:49:34;11.88;;;4.68;;
70838;SDS011;58464;52.298;4.852;2022-09-06T05:51:59;6.20;;;4.45;;
70838;SDS011;58464;52.298;4.852;2022-09-06T05:54:25;7.25;;;4.28;;
70838;SDS011;58464;52.298;4.852;2022-09-06T05:56:50;7.82;;;4.22;;
70838;SDS011;58464;52.298;4.852;2022-09-06T05:59:16;11.05;;;4.25;;
70838;SDS011;58464;52.298;4.852;2022-09-06T06:01:48;11.98;;;4.30;;
70838;SDS011;58464;52.298;4.852;2022-09-06T06:04:15;5.60;;;3.85;;
70838;SDS011;58464;52.298;4.852;2022-09-06T06:06:42;9.07;;;4.55;;
70838;SDS011;58464;52.298;4.852;2022-09-06T06:09:08;7.93;;;3.83;;
70838;SDS011;58464;52.298;4.852;2022-09-06T06:11:34;6.13;;;4.18;;
70838;SDS011;58464;52.298;4.852;2022-09-06T06:14:00;8.13;;;4.13;;
70838;SDS011;58464;52.298;4.852;2022-09-06T06:16:26;7.75;;;4.18;;
70838;SDS011;58464;52.298;4.852;2022-09-06T06:18:52;5.45;;;4.32;;
70838;SDS011;58464;52.298;4.852;2022-09-06T06:23:45;8.75;;;4.40;;
70838;SDS011;58464;52.298;4.852;2022-09-06T06:26:13;8.00;;;5.35;;
70838;SDS011;58464;52.298;4.852;2022-09-06T06:28:38;7.68;;;4.63;;
70838;SDS011;58464;52.298;4.852;2022-09-06T06:31:05;9.82;;;4.38;;
70838;SDS011;58464;52.298;4.852;2022-09-06T06:33:32;6.57;;;4.53;;
70838;SDS011;58464;52.298;4.852;2022-09-06T06:38:23;9.20;;;4.97;;
70838;SDS011;58464;52.298;4.852;2022-09-06T06:40:50;10.18;;;4.63;;
70838;SDS011;58464;52.298;4.852;2022-09-06T06:43:15;8.90;;;4.53;;
70838;SDS011;58464;52.298;4.852;2022-09-06T06:45:40;10.10;;;4.80;;
70838;SDS011;58464;52.298;4.852;2022-09-06T06:48:06;14.82;;;5.07;;
70838;SDS011;58464;52.298;4.852;2022-09-06T06:50:31;23.27;;;4.60;;
70838;SDS011;58464;52.298;4.852;2022-09-06T06:52:56;14.85;;;4.82;;
70838;SDS011;58464;52.298;4.852;2022-09-06T06:55:22;6.75;;;4.57;;
70838;SDS011;58464;52.298;4.852;2022-09-06T06:57:47;10.98;;;3.78;;
70838;SDS011;58464;52.298;4.852;2022-09-06T07:00:12;12.63;;;4.50;;
70838;SDS011;58464;52.298;4.852;2022-09-06T07:02:38;8.38;;;4.72;;
70838;SDS011;58464;52.298;4.852;2022-09-06T07:05:03;8.50;;;4.43;;
70838;SDS011;58464;52.298;4.852;2022-09-06T07:07:29;12.10;;;4.60;;
70838;SDS011;58464;52.298;4.852;2022-09-06T07:09:54;8.95;;;4.05;;
70838;SDS011;58464;52.298;4.852;2022-09-06T07:12:20;8.38;;;4.30;;
70838;SDS011;58464;52.298;4.852;2022-09-06T07:14:45;4.68;;;3.55;;
70838;SDS011;58464;52.298;4.852;2022-09-06T07:17:10;10.30;;;4.63;;
70838;SDS011;58464;52.298;4.852;2022-09-06T07:19:36;8.20;;;3.90;;
70838;SDS011;58464;52.298;4.852;2022-09-06T07:22:01;12.07;;;4.32;;
70838;SDS011;58464;52.298;4.852;2022-09-06T07:24:26;8.63;;;3.78;;
70838;SDS011;58464;52.298;4.852;2022-09-06T07:26:52;10.15;;;4.30;;
70838;SDS011;58464;52.298;4.852;2022-09-06T07:29:17;11.93;;;3.97;;
70838;SDS011;58464;52.298;4.852;2022-09-06T07:31:42;8.43;;;3.78;;
70838;SDS011;58464;52.298;4.852;2022-09-06T07:34:08;9.93;;;4.70;;
70838;SDS011;58464;52.298;4.852;2022-09-06T07:36:33;6.97;;;3.60;;
70838;SDS011;58464;52.298;4.852;2022-09-06T07:38:59;9.05;;;4.60;;
70838;SDS011;58464;52.298;4.852;2022-09-06T07:41:24;7.72;;;4.68;;
70838;SDS011;58464;52.298;4.852;2022-09-06T07:43:53;9.05;;;4.43;;
70838;SDS011;58464;52.298;4.852;2022-09-06T07:46:18;7.13;;;4.05;;
70838;SDS011;58464;52.298;4.852;2022-09-06T07:48:44;9.48;;;4.78;;
70838;SDS011;58464;52.298;4.852;2022-09-06T07:51:11;9.43;;;4.72;;
70838;SDS011;58464;52.298;4.852;2022-09-06T07:53:41;7.57;;;4.32;;
70838;SDS011;58464;52.298;4.852;2022-09-06T07:56:08;9.10;;;4.28;;
70838;SDS011;58464;52.298;4.852;2022-09-06T07:58:35;8.05;;;3.90;;
70838;SDS011;58464;52.298;4.852;2022-09-06T08:03:43;5.78;;;3.95;;
70838;SDS011;58464;52.298;4.852;2022-09-06T08:06:10;10.98;;;4.53;;
70838;SDS011;58464;52.298;4.852;2022-09-06T08:08:35;5.97;;;3.92;;
70838;SDS011;58464;52.298;4.852;2022-09-06T08:11:01;10.20;;;4.75;;
70838;SDS011;58464;52.298;4.852;2022-09-06T08:13:27;9.35;;;5.07;;
70838;SDS011;58464;52.298;4.852;2022-09-06T08:15:57;6.40;;;4.28;;
70838;SDS011;58464;52.298;4.852;2022-09-06T08:18:23;9.80;;;4.03;;
70838;SDS011;58464;52.298;4.852;2022-09-06T08:20:48;8.38;;;4.80;;
70838;SDS011;58464;52.298;4.852;2022-09-06T08:23:14;8.05;;;4.10;;
70838;SDS011;58464;52.298;4.852;2022-09-06T08:25:39;8.65;;;4.65;;
70838;SDS011;58464;52.298;4.852;2022-09-06T08:28:04;13.70;;;4.68;;
70838;SDS011;58464;52.298;4.852;2022-09-06T08:30:29;9.82;;;5.03;;
70838;SDS011;58464;52.298;4.852;2022-09-06T08:32:55;10.63;;;4.60;;
70838;SDS011;58464;52.298;4.852;2022-09-06T08:35:20;12.02;;;4.20;;
70838;SDS011;58464;52.298;4.852;2022-09-06T08:37:46;8.02;;;4.75;;
70838;SDS011;58464;52.298;4.852;2022-09-06T08:40:19;7.57;;;4.40;;
70838;SDS011;58464;52.298;4.852;2022-09-06T08:42:45;6.93;;;4.28;;
70838;SDS011;58464;52.298;4.852;2022-09-06T08:45:12;6.03;;;4.07;;
70838;SDS011;58464;52.298;4.852;2022-09-06T08:47:43;7.43;;;4.53;;
70838;SDS011;58464;52.298;4.852;2022-09-06T08:50:08;9.25;;;4.90;;
70838;SDS011;58464;52.298;4.852;2022-09-06T08:55:35;8.38;;;4.85;;
70838;SDS011;58464;52.298;4.852;2022-09-06T09:00:59;8.95;;;4.95;;
70838;SDS011;58464;52.298;4.852;2022-09-06T09:03:45;8.07;;;4.40;;
70838;SDS011;58464;52.298;4.852;2022-09-06T09:06:11;7.07;;;5.10;;
70838;SDS011;58464;52.298;4.852;2022-09-06T09:11:02;6.10;;;4.40;;
70838;SDS011;58464;52.298;4.852;2022-09-06T09:13:45;8.93;;;4.25;;
70838;SDS011;58464;52.298;4.852;2022-09-06T09:16:16;10.05;;;4.70;;
70838;SDS011;58464;52.298;4.852;2022-09-06T09:18:50;7.80;;;4.53;;
70838;SDS011;58464;52.298;4.852;2022-09-06T09:21:21;7.03;;;5.00;;
70838;SDS011;58464;52.298;4.852;2022-09-06T09:23:52;7.45;;;4.60;;
70838;SDS011;58464;52.298;4.852;2022-09-06T09:26:21;12.10;;;4.72;;
70838;SDS011;58464;52.298;4.852;2022-09-06T09:31:50;8.90;;;4.75;;
70838;SDS011;58464;52.298;4.852;2022-09-06T09:39:48;7.07;;;4.47;;
70838;SDS011;58464;52.298;4.852;2022-09-06T09:42:26;6.70;;;4.47;;
70838;SDS011;58464;52.298;4.852;2022-09-06T09:44:55;7.57;;;4.45;;
70838;SDS011;58464;52.298;4.852;2022-09-06T09:47:31;5.82;;;4.30;;
70838;SDS011;58464;52.298;4.852;2022-09-06T09:49:58;12.43;;;4.97;;
70838;SDS011;58464;52.298;4.852;2022-09-06T09:52:25;10.07;;;4.90;;
70838;SDS011;58464;52.298;4.852;2022-09-06T09:54:59;10.88;;;5.20;;
70838;SDS011;58464;52.298;4.852;2022-09-06T09:57:30;10.77;;;5.28;;
70838;SDS011;58464;52.298;4.852;2022-09-06T10:00:06;12.00;;;4.82;;
70838;SDS011;58464;52.298;4.852;2022-09-06T10:02:37;7.40;;;4.28;;
70838;SDS011;58464;52.298;4.852;2022-09-06T10:05:08;8.60;;;4.40;;
70838;SDS011;58464;52.298;4.852;2022-09-06T10:07:48;9.63;;;4.45;;
70838;SDS011;58464;52.298;4.852;2022-09-06T10:13:04;9.13;;;4.70;;
70838;SDS011;58464;52.298;4.852;2022-09-06T10:15:46;6.80;;;4.28;;
70838;SDS011;58464;52.298;4.852;2022-09-06T10:21:02;12.77;;;5.65;;
70838;SDS011;58464;52.298;4.852;2022-09-06T10:27:00;9.63;;;5.07;;
70838;SDS011;58464;52.298;4.852;2022-09-06T10:37:32;9.70;;;5.03;;
70838;SDS011;58464;52.298;4.852;2022-09-06T10:40:02;8.35;;;5.43;;
70838;SDS011;58464;52.298;4.852;2022-09-06T10:42:42;6.78;;;4.10;;
70838;SDS011;58464;52.298;4.852;2022-09-06T10:45:22;6.10;;;3.80;;
70838;SDS011;58464;52.298;4.852;2022-09-06T10:50:21;8.05;;;3.97;;
70838;SDS011;58464;52.298;4.852;2022-09-06T10:52:51;7.22;;;3.80;;
70838;SDS011;58464;52.298;4.852;2022-09-06T10:55:18;9.82;;;4.30;;
70838;SDS011;58464;52.298;4.852;2022-09-06T10:57:45;11.48;;;4.80;;
70838;SDS011;58464;52.298;4.852;2022-09-06T11:00:14;7.25;;;4.47;;
70838;SDS011;58464;52.298;4.852;2022-09-06T11:02:44;7.43;;;4.57;;
70838;SDS011;58464;52.298;4.852;2022-09-06T11:05:58;8.38;;;4.38;;
70838;SDS011;58464;52.298;4.852;2022-09-06T11:08:07;11.70;;;5.15;;
70838;SDS011;58464;52.298;4.852;2022-09-06T11:10:37;7.25;;;4.60;;
70838;SDS011;58464;52.298;4.852;2022-09-06T11:13:15;8.70;;;4.07;;
70838;SDS011;58464;52.298;4.852;2022-09-06T11:24:14;11.13;;;4.05;;
70838;SDS011;58464;52.298;4.852;2022-09-06T11:26:44;10.00;;;4.70;;
70838;SDS011;58464;52.298;4.852;2022-09-06T11:29:23;8.25;;;4.68;;
70838;SDS011;58464;52.298;4.852;2022-09-06T11:31:57;8.68;;;3.88;;
70838;SDS011;58464;52.298;4.852;2022-09-06T11:34:30;6.30;;;3.85;;
70838;SDS011;58464;52.298;4.852;2022-09-06T11:36:58;8.40;;;4.78;;
70838;SDS011;58464;52.298;4.852;2022-09-06T11:39:27;12.05;;;4.65;;
70838;SDS011;58464;52.298;4.852;2022-09-06T11:41:56;8.05;;;4.35;;
70838;SDS011;58464;52.298;4.852;2022-09-06T11:55:43;16.17;;;5.25;;
70838;SDS011;58464;52.298;4.852;2022-09-06T12:00:41;11.73;;;5.20;;
70838;SDS011;58464;52.298;4.852;2022-09-06T12:03:08;14.27;;;5.07;;
70838;SDS011;58464;52.298;4.852;2022-09-06T12:08:41;12.13;;;5.13;;
70838;SDS011;58464;52.298;4.852;2022-09-06T12:11:49;5.25;;;3.72;;
70838;SDS011;58464;52.298;4.852;2022-09-06T12:14:03;9.95;;;4.97;;
70838;SDS011;58464;52.298;4.852;2022-09-06T12:25:03;8.63;;;4.70;;
70838;SDS011;58464;52.298;4.852;2022-09-06T12:27:55;8.00;;;4.82;;
70838;SDS011;58464;52.298;4.852;2022-09-06T12:33:05;7.18;;;2.75;;
70838;SDS011;58464;52.298;4.852;2022-09-06T12:35:34;7.53;;;4.18;;
70838;SDS011;58464;52.298;4.852;2022-09-06T12:38:02;7.55;;;3.50;;
70838;SDS011;58464;52.298;4.852;2022-09-06T12:40:31;6.85;;;4.43;;
70838;SDS011;58464;52.298;4.852;2022-09-06T12:42:59;5.97;;;3.08;;
70838;SDS011;58464;52.298;4.852;2022-09-06T12:45:27;7.38;;;3.25;;
70838;SDS011;58464;52.298;4.852;2022-09-06T12:48:09;7.47;;;3.42;;
70838;SDS011;58464;52.298;4.852;2022-09-06T12:50:37;7.95;;;4.28;;
70838;SDS011;58464;52.298;4.852;2022-09-06T12:53:08;9.32;;;3.42;;
70838;SDS011;58464;52.298;4.852;2022-09-06T12:55:41;10.85;;;2.60;;
70838;SDS011;58464;52.298;4.852;2022-09-06T12:58:09;10.52;;;2.85;;
70838;SDS011;58464;52.298;4.852;2022-09-06T13:00:41;9.98;;;2.33;;
70838;SDS011;58464;52.298;4.852;2022-09-06T13:05:37;5.05;;;2.20;;
70838;SDS011;58464;52.298;4.852;2022-09-06T13:08:04;7.07;;;2.30;;
70838;SDS011;58464;52.298;4.852;2022-09-06T13:10:37;7.53;;;2.10;;
70838;SDS011;58464;52.298;4.852;2022-09-06T13:13:06;7.55;;;1.80;;
70838;SDS011;58464;52.298;4.852;2022-09-06T13:15:31;3.67;;;2.15;;
70838;SDS011;58464;52.298;4.852;2022-09-06T13:18:19;6.72;;;2.03;;
70838;SDS011;58464;52.298;4.852;2022-09-06T13:21:03;4.40;;;2.00;;
70838;SDS011;58464;52.298;4.852;2022-09-06T13:23:41;5.80;;;3.00;;
70838;SDS011;58464;52.298;4.852;2022-09-06T13:26:08;7.15;;;2.55;;
70838;SDS011;58464;52.298;4.852;2022-09-06T13:28:34;4.47;;;1.73;;
70838;SDS011;58464;52.298;4.852;2022-09-06T13:31:00;4.28;;;2.08;;
70838;SDS011;58464;52.298;4.852;2022-09-06T13:33:28;6.57;;;2.47;;
70838;SDS011;58464;52.298;4.852;2022-09-06T13:38:57;7.25;;;2.55;;
70838;SDS011;58464;52.298;4.852;2022-09-06T13:44:26;6.07;;;2.00;;
70838;SDS011;58464;52.298;4.852;2022-09-06T13:46:45;5.25;;;2.05;;
70838;SDS011;58464;52.298;4.852;2022-09-06T13:49:10;8.90;;;2.60;;
70838;SDS011;58464;52.298;4.852;2022-09-06T13:51:36;6.80;;;3.00;;
70838;SDS011;58464;52.298;4.852;2022-09-06T13:54:06;4.13;;;2.45;;
70838;SDS011;58464;52.298;4.852;2022-09-06T13:56:37;6.25;;;2.65;;
70838;SDS011;58464;52.298;4.852;2022-09-06T13:59:03;7.43;;;1.90;;
70838;SDS011;58464;52.298;4.852;2022-09-06T14:01:30;3.58;;;2.28;;
70838;SDS011;58464;52.298;4.852;2022-09-06T14:03:56;6.50;;;2.80;;
70838;SDS011;58464;52.298;4.852;2022-09-06T14:06:22;5.65;;;2.38;;
70838;SDS011;58464;52.298;4.852;2022-09-06T14:08:47;6.68;;;2.50;;
70838;SDS011;58464;52.298;4.852;2022-09-06T14:11:13;6.70;;;2.63;;
70838;SDS011;58464;52.298;4.852;2022-09-06T14:13:38;10.52;;;2.47;;
70838;SDS011;58464;52.298;4.852;2022-09-06T14:16:04;4.65;;;2.22;;
70838;SDS011;58464;52.298;4.852;2022-09-06T14:18:31;7.18;;;2.55;;
70838;SDS011;58464;52.298;4.852;2022-09-06T14:20:56;8.10;;;2.90;;
70838;SDS011;58464;52.298;4.852;2022-09-06T14:23:23;6.43;;;2.65;;
70838;SDS011;58464;52.298;4.852;2022-09-06T14:25:59;7.38;;;2.38;;
70838;SDS011;58464;52.298;4.852;2022-09-06T14:28:29;6.15;;;2.35;;
70838;SDS011;58464;52.298;4.852;2022-09-06T14:30:57;4.22;;;1.95;;
70838;SDS011;58464;52.298;4.852;2022-09-06T14:33:22;7.35;;;2.30;;
70838;SDS011;58464;52.298;4.852;2022-09-06T14:35:48;6.13;;;2.22;;
70838;SDS011;58464;52.298;4.852;2022-09-06T14:38:14;6.38;;;2.03;;
70838;SDS011;58464;52.298;4.852;2022-09-06T14:40:39;6.90;;;1.98;;
70838;SDS011;58464;52.298;4.852;2022-09-06T14:43:09;7.20;;;2.50;;
70838;SDS011;58464;52.298;4.852;2022-09-06T14:45:35;6.75;;;2.10;;
70838;SDS011;58464;52.298;4.852;2022-09-06T14:48:01;5.95;;;2.50;;
70838;SDS011;58464;52.298;4.852;2022-09-06T14:50:27;8.75;;;2.17;;
70838;SDS011;58464;52.298;4.852;2022-09-06T14:52:52;6.07;;;2.20;;
70838;SDS011;58464;52.298;4.852;2022-09-06T14:55:18;9.35;;;2.72;;
70838;SDS011;58464;52.298;4.852;2022-09-06T14:57:43;4.32;;;1.90;;
70838;SDS011;58464;52.298;4.852;2022-09-06T15:00:09;7.65;;;2.20;;
70838;SDS011;58464;52.298;4.852;2022-09-06T15:02:35;11.13;;;2.42;;
70838;SDS011;58464;52.298;4.852;2022-09-06T15:08:01;5.95;;;2.60;;
70838;SDS011;58464;52.298;4.852;2022-09-06T15:10:27;7.10;;;2.05;;
70838;SDS011;58464;52.298;4.852;2022-09-06T15:12:52;8.13;;;2.20;;
70838;SDS011;58464;52.298;4.852;2022-09-06T15:15:18;8.25;;;2.20;;
70838;SDS011;58464;52.298;4.852;2022-09-06T15:17:43;7.53;;;2.17;;
70838;SDS011;58464;52.298;4.852;2022-09-06T15:20:10;6.75;;;2.28;;
70838;SDS011;58464;52.298;4.852;2022-09-06T15:22:35;8.48;;;2.47;;
70838;SDS011;58464;52.298;4.852;2022-09-06T15:25:01;10.52;;;2.45;;
70838;SDS011;58464;52.298;4.852;2022-09-06T15:27:27;8.98;;;2.28;;
70838;SDS011;58464;52.298;4.852;2022-09-06T15:29:54;7.45;;;2.10;;
70838;SDS011;58464;52.298;4.852;2022-09-06T15:32:19;4.20;;;1.70;;
70838;SDS011;58464;52.298;4.852;2022-09-06T15:34:44;11.80;;;2.42;;
70838;SDS011;58464;52.298;4.852;2022-09-06T15:37:09;9.07;;;2.35;;
70838;SDS011;58464;52.298;4.852;2022-09-06T15:39:35;6.60;;;1.75;;
70838;SDS011;58464;52.298;4.852;2022-09-06T15:42:00;7.53;;;1.80;;
70838;SDS011;58464;52.298;4.852;2022-09-06T15:44:25;5.63;;;1.73;;
70838;SDS011;58464;52.298;4.852;2022-09-06T15:46:52;7.07;;;1.90;;
70838;SDS011;58464;52.298;4.852;2022-09-06T15:49:23;5.28;;;1.80;;
70838;SDS011;58464;52.298;4.852;2022-09-06T15:51:50;4.90;;;2.08;;
70838;SDS011;58464;52.298;4.852;2022-09-06T15:54:16;10.63;;;2.00;;
70838;SDS011;58464;52.298;4.852;2022-09-06T15:56:43;8.27;;;2.10;;
70838;SDS011;58464;52.298;4.852;2022-09-06T15:59:09;5.43;;;1.42;;
70838;SDS011;58464;52.298;4.852;2022-09-06T16:01:36;5.00;;;2.05;;
70838;SDS011;58464;52.298;4.852;2022-09-06T16:04:02;5.78;;;2.33;;
70838;SDS011;58464;52.298;4.852;2022-09-06T16:06:37;11.73;;;2.53;;
70838;SDS011;58464;52.298;4.852;2022-09-06T16:09:07;5.07;;;1.63;;
70838;SDS011;58464;52.298;4.852;2022-09-06T16:11:34;6.05;;;1.73;;
70838;SDS011;58464;52.298;4.852;2022-09-06T16:14:00;3.00;;;1.30;;
70838;SDS011;58464;52.298;4.852;2022-09-06T16:16:27;3.88;;;1.98;;
70838;SDS011;58464;52.298;4.852;2022-09-06T16:18:53;2.33;;;1.08;;
70838;SDS011;58464;52.298;4.852;2022-09-06T16:21:19;2.15;;;0.82;;
70838;SDS011;58464;52.298;4.852;2022-09-06T16:23:51;3.08;;;0.93;;
70838;SDS011;58464;52.298;4.852;2022-09-06T16:26:25;5.47;;;1.10;;
70838;SDS011;58464;52.298;4.852;2022-09-06T16:28:52;2.75;;;0.90;;
70838;SDS011;58464;52.298;4.852;2022-09-06T16:31:18;4.22;;;1.42;;
70838;SDS011;58464;52.298;4.852;2022-09-06T16:33:44;4.30;;;1.20;;
70838;SDS011;58464;52.298;4.852;2022-09-06T16:36:11;5.30;;;1.23;;
70838;SDS011;58464;52.298;4.852;2022-09-06T16:38:38;3.10;;;1.20;;
70838;SDS011;58464;52.298;4.852;2022-09-06T16:41:07;2.78;;;1.10;;
70838;SDS011;58464;52.298;4.852;2022-09-06T16:43:38;5.20;;;2.15;;
70838;SDS011;58464;52.298;4.852;2022-09-06T16:46:04;4.70;;;1.55;;
70838;SDS011;58464;52.298;4.852;2022-09-06T16:48:30;7.00;;;1.85;;
70838;SDS011;58464;52.298;4.852;2022-09-06T16:50:55;5.47;;;1.95;;
70838;SDS011;58464;52.298;4.852;2022-09-06T16:53:21;4.60;;;1.92;;
70838;SDS011;58464;52.298;4.852;2022-09-06T16:55:48;5.68;;;2.20;;